Portada
METAR-TAF:

METAR-TAF

Aeroports :

Manado, Indonèsia

latitud: 01-32N, longitud: 124-55E, altitud: 80 m

Observació

L'informe es va fer fa 24 minuts, a les 22:30 UTC
Vent calma
Temperatura 25°C
Humitat 94%
Pressió 1010 hPa
Visibilitat: 8000 m
Núvols disperses a una alçada de 2000 ft

METAR: WAMM 252230Z 00000KT 8000 SCT020 25/24 Q1010 RERA NOSIG

Hora: 05:54 (22:54 UTC)

Pronòstic

L'informe es va fer fa 5 hores i 54 minuts, a les 17:00 UTC
Pronòstic vàlid del 25 a les 18 UTC al 26 a les 24 UTC
Vent 5 kt del Nord-Est
Visibilitat: 8000 m
Núvols disperses a una alçada de 2000 ft
Probabilitat 40% :
Temporalment
l' 25 a les 18 UTC al 25 a les 22 UTC
Visibilitat: 5000 m
pluja
Evolucionant progressivament
l' 25 a les 23 UTC al 26 a les 01 UTC
Vent 10 kt del Nord-Oest

TAF: WAMM 251700Z 2518/2624 05005KT 8000 SCT020 PROB40 TEMPO 2518/2522 5000 -RA BECMG 2523/2601 32010KT

Observacions i pronòstics meteorològics de més de 4000 aeroports (METAR i TAF).

Les estacions disponibles són els punts grocs i vermells al mapa.

Posi el ratolí al punt desitjat per veure el nom de l'estació.

Feu clic per veure les observacions i els pronòstics meteorològics.

Per canviar el mapa: feu clic els botons verds amb una creu de color negre per apropar; al botó verd amb un guió per allunyar la imatge; o en les fletxes verdes per a mapes adjacents.


METAR-TAF: